Time;durP1;ratioP1;P1;durP2;ratioP2;P2;SDS_P1;SDS_P2;PMS_P1;PMS_P2;Temp;Humidity;BMP_temperature;BMP_pressure;BME280_temperature;BME280_humidity;BME280_pressure;Samples;Min_cycle;Max_cycle;Signal;HPM_P1;HPM_P2
2023/02/17 00:00:56;;;;;;;88.18;46.80;;;5.70;99.90;;;;;;5017896;28;20079;-76
2023/02/17 00:03:22;;;;;;;87.25;48.20;;;5.80;99.90;;;;;;5018071;28;20127;-75
2023/02/17 00:05:48;;;;;;;94.50;48.33;;;5.80;99.90;;;;;;5022121;28;20034;-74
2023/02/17 00:08:14;;;;;;;95.72;52.38;;;5.80;99.90;;;;;;5021797;28;20034;-75
2023/02/17 00:10:39;;;;;;;101.68;51.50;;;6.10;99.90;;;;;;5022700;28;20113;-75
2023/02/17 00:13:05;;;;;;;102.60;52.42;;;6.10;99.90;;;;;;5021096;28;20029;-75
2023/02/17 00:15:31;;;;;;;95.88;48.15;;;6.10;99.90;;;;;;5023538;28;20029;-75
2023/02/17 00:17:56;;;;;;;90.70;48.95;;;5.90;99.90;;;;;;5023768;28;20483;-75
2023/02/17 00:20:22;;;;;;;92.80;46.95;;;6.00;99.90;;;;;;5018970;28;20033;-75
2023/02/17 00:22:47;;;;;;;101.72;51.42;;;6.00;99.90;;;;;;5025610;28;20040;-75
2023/02/17 00:25:13;;;;;;;95.55;45.85;;;6.10;99.90;;;;;;5027006;28;20037;-75
2023/02/17 00:27:39;;;;;;;86.88;45.10;;;6.10;99.90;;;;;;5024488;28;20037;-75
2023/02/17 00:30:05;;;;;;;96.97;50.30;;;6.20;99.90;;;;;;5025072;28;20048;-74
2023/02/17 00:32:30;;;;;;;84.35;46.53;;;6.10;99.90;;;;;;5020532;28;20025;-75
2023/02/17 00:34:57;;;;;;;91.70;47.67;;;5.90;99.90;;;;;;5026144;28;20045;-75
2023/02/17 00:37:23;;;;;;;99.65;51.60;;;5.90;99.90;;;;;;5024176;28;20438;-75
2023/02/17 00:39:49;;;;;;;96.40;50.08;;;5.80;99.90;;;;;;5022567;28;20408;-75
2023/02/17 00:42:15;;;;;;;94.53;52.65;;;5.90;99.90;;;;;;5020181;28;20096;-75
2023/02/17 00:44:41;;;;;;;97.75;53.67;;;5.80;99.90;;;;;;5024854;28;20038;-74
2023/02/17 00:47:07;;;;;;;101.93;54.00;;;5.80;99.90;;;;;;5027035;28;20022;-74
2023/02/17 00:49:32;;;;;;;104.75;53.85;;;5.70;99.90;;;;;;5019820;28;20132;-75
2023/02/17 00:52:00;;;;;;;103.35;56.47;;;5.50;99.90;;;;;;5026057;28;20423;-75
2023/02/17 00:54:26;;;;;;;105.38;52.70;;;5.50;99.90;;;;;;5030205;28;20029;-75
2023/02/17 00:56:52;;;;;;;107.18;56.60;;;5.60;99.90;;;;;;5030542;28;20034;-76
2023/02/17 00:59:18;;;;;;;108.18;57.00;;;5.60;99.90;;;;;;5026988;28;20068;-74
2023/02/17 01:01:44;;;;;;;116.82;59.13;;;5.70;99.90;;;;;;5026218;28;20396;-75
2023/02/17 01:04:10;;;;;;;112.32;59.75;;;5.50;99.90;;;;;;5029347;28;20037;-75
2023/02/17 01:06:38;;;;;;;115.30;58.47;;;5.60;99.90;;;;;;5027204;28;20025;-75
2023/02/17 01:09:06;;;;;;;105.38;55.08;;;5.60;99.90;;;;;;5028939;28;20030;-75
2023/02/17 01:11:33;;;;;;;102.32;57.33;;;5.30;99.90;;;;;;5027176;28;20033;-75
2023/02/17 01:14:00;;;;;;;97.82;51.15;;;5.50;99.90;;;;;;5031255;28;20029;-75
2023/02/17 01:16:34;;;;;;;92.70;50.05;;;5.60;99.90;;;;;;5028633;28;20033;-75
2023/02/17 01:19:01;;;;;;;97.47;51.70;;;5.50;99.90;;;;;;5028039;28;20499;-75
2023/02/17 01:21:28;;;;;;;94.03;50.65;;;5.30;99.90;;;;;;5022523;28;20022;-75
2023/02/17 01:23:56;;;;;;;100.88;54.67;;;5.20;99.90;;;;;;5029139;28;20395;-75
2023/02/17 01:26:26;;;;;;;104.32;54.25;;;5.40;99.90;;;;;;5027317;28;20494;-75
2023/02/17 01:28:52;;;;;;;105.90;55.80;;;5.40;99.90;;;;;;5025318;28;20037;-75
2023/02/17 01:31:19;;;;;;;103.65;54.70;;;5.40;99.90;;;;;;5021421;28;20030;-75
2023/02/17 01:33:45;;;;;;;93.70;51.08;;;5.40;99.90;;;;;;5024996;28;20040;-75
2023/02/17 01:36:13;;;;;;;95.93;52.28;;;5.50;99.90;;;;;;5021978;28;20030;-75
2023/02/17 01:38:39;;;;;;;93.90;50.45;;;5.50;99.90;;;;;;5029590;28;20407;-75
2023/02/17 01:41:06;;;;;;;103.78;53.28;;;5.50;99.90;;;;;;5026678;28;20036;-75
2023/02/17 01:43:32;;;;;;;96.65;53.85;;;5.50;99.90;;;;;;5022302;28;20038;-75
2023/02/17 01:46:08;;;;;;;101.57;53.72;;;5.50;99.90;;;;;;5024766;28;20056;-75
2023/02/17 01:48:42;;;;;;;101.82;56.60;;;5.50;99.90;;;;;;5028689;28;20026;-75
2023/02/17 01:51:27;;;;;;;114.68;55.72;;;5.50;99.90;;;;;;5028057;28;20040;-75
2023/02/17 01:54:16;;;;;;;108.03;56.65;;;5.50;99.90;;;;;;5023983;28;20029;-75
2023/02/17 01:56:46;;;;;;;111.07;55.13;;;5.40;99.90;;;;;;5024302;28;20049;-74
2023/02/17 01:59:20;;;;;;;105.35;53.75;;;5.40;99.90;;;;;;5025194;28;20048;-75
2023/02/17 02:01:49;;;;;;;99.43;52.13;;;5.50;99.90;;;;;;5021709;28;20113;-75
2023/02/17 02:04:17;;;;;;;104.45;55.15;;;5.30;99.90;;;;;;5025584;28;20037;-75
2023/02/17 02:06:43;;;;;;;100.53;54.17;;;5.10;99.90;;;;;;5024925;28;20037;-75
2023/02/17 02:09:25;;;;;;;98.70;51.80;;;5.00;99.90;;;;;;5026710;28;20043;-75
2023/02/17 02:11:51;;;;;;;96.50;52.28;;;4.80;99.90;;;;;;5024859;28;20108;-75
2023/02/17 02:14:18;;;;;;;97.50;53.72;;;5.00;99.90;;;;;;5029212;28;20028;-75
2023/02/17 02:16:58;;;;;;;98.32;53.35;;;5.20;99.90;;;;;;5027984;28;20032;-75
2023/02/17 02:20:02;;;;;;;107.05;55.92;;;5.20;99.90;;;;;;5025367;28;20057;-75
2023/02/17 02:22:46;;;;;;;107.47;56.22;;;5.00;99.90;;;;;;5026754;28;20472;-75
2023/02/17 02:25:30;;;;;;;102.50;51.20;;;5.10;99.90;;;;;;5027308;28;20092;-75
2023/02/17 02:28:23;;;;;;;101.93;56.08;;;5.00;99.90;;;;;;5025568;28;20059;-75
2023/02/17 02:31:13;;;;;;;108.53;56.40;;;5.10;99.90;;;;;;5028012;28;20021;-75
2023/02/17 02:33:46;;;;;;;120.20;59.92;;;5.20;99.90;;;;;;5026487;28;20044;-75
2023/02/17 02:36:25;;;;;;;101.57;56.28;;;5.20;99.90;;;;;;5022482;28;20644;-75
2023/02/17 02:39:17;;;;;;;107.28;56.72;;;5.20;99.90;;;;;;5028341;28;20053;-75
2023/02/17 02:41:47;;;;;;;102.82;57.70;;;5.20;99.90;;;;;;5024514;28;20041;-75
2023/02/17 02:44:16;;;;;;;113.10;58.72;;;5.10;99.90;;;;;;5026912;28;20041;-75
2023/02/17 02:46:42;;;;;;;111.25;57.60;;;4.90;99.90;;;;;;5028535;28;20117;-75
2023/02/17 02:49:08;;;;;;;111.60;58.72;;;5.00;99.90;;;;;;5027624;28;20112;-75
2023/02/17 02:51:53;;;;;;;104.68;60.75;;;5.00;99.90;;;;;;5024289;28;20048;-75
2023/02/17 02:54:31;;;;;;;114.32;59.80;;;4.90;99.90;;;;;;5022782;28;20084;-75
2023/02/17 02:57:26;;;;;;;105.10;55.63;;;5.10;99.90;;;;;;5025768;28;20079;-75
2023/02/17 03:00:12;;;;;;;109.15;57.67;;;5.00;99.90;;;;;;5024292;28;20484;-75
2023/02/17 03:03:16;;;;;;;110.68;56.30;;;5.00;99.90;;;;;;5024544;28;20025;-74
2023/02/17 03:05:47;;;;;;;101.93;55.75;;;4.80;99.90;;;;;;5037330;28;20041;-74
2023/02/17 03:08:24;;;;;;;104.90;56.95;;;4.90;99.90;;;;;;5034054;28;20036;-75
2023/02/17 03:10:52;;;;;;;106.10;57.15;;;4.80;99.90;;;;;;5029263;28;20107;-74
2023/02/17 03:13:19;;;;;;;105.45;57.25;;;4.70;99.90;;;;;;5027430;28;20079;-74
2023/02/17 03:15:45;;;;;;;110.63;59.28;;;4.70;99.90;;;;;;5026660;28;20060;-74
2023/02/17 03:18:11;;;;;;;119.38;61.35;;;4.80;99.90;;;;;;5024259;28;20030;-75
2023/02/17 03:20:42;;;;;;;110.93;57.80;;;4.80;99.90;;;;;;5028000;28;20033;-74
2023/02/17 03:23:08;;;;;;;111.18;59.78;;;4.70;99.90;;;;;;5023318;28;20041;-74
2023/02/17 03:25:34;;;;;;;108.90;55.75;;;4.70;99.90;;;;;;5020414;28;20455;-74
2023/02/17 03:28:00;;;;;;;113.15;57.08;;;4.70;99.90;;;;;;5025994;28;20033;-74
2023/02/17 03:30:26;;;;;;;116.90;59.90;;;4.90;99.90;;;;;;5027459;28;20025;-74
2023/02/17 03:32:52;;;;;;;113.07;58.38;;;4.90;99.90;;;;;;5025871;28;20025;-74
2023/02/17 03:35:18;;;;;;;114.53;60.10;;;5.00;99.90;;;;;;5027800;28;20036;-74
2023/02/17 03:37:43;;;;;;;110.45;58.40;;;5.00;99.90;;;;;;5025991;28;20021;-74
2023/02/17 03:40:09;;;;;;;115.35;59.63;;;4.90;99.90;;;;;;5026153;28;20037;-74
2023/02/17 03:42:35;;;;;;;114.95;58.80;;;4.80;99.90;;;;;;5027219;28;20116;-74
2023/02/17 03:45:00;;;;;;;114.32;58.45;;;4.70;99.90;;;;;;5027078;28;20080;-75
2023/02/17 03:47:26;;;;;;;115.10;61.35;;;4.50;99.90;;;;;;5026382;28;20087;-74
2023/02/17 03:49:52;;;;;;;112.50;54.33;;;4.60;99.90;;;;;;5025033;28;20040;-74
2023/02/17 03:52:18;;;;;;;104.38;56.60;;;4.60;99.90;;;;;;5014347;28;20109;-74
2023/02/17 03:54:44;;;;;;;105.80;57.30;;;4.40;99.90;;;;;;5028209;28;20041;-74
2023/02/17 03:57:09;;;;;;;110.18;56.70;;;4.60;99.90;;;;;;5022239;28;20420;-74
2023/02/17 03:59:35;;;;;;;111.35;56.38;;;4.60;99.90;;;;;;5025808;28;20083;-74
2023/02/17 04:02:01;;;;;;;103.47;55.60;;;4.60;99.90;;;;;;5019354;28;20030;-75
2023/02/17 04:04:27;;;;;;;111.82;57.67;;;4.60;99.90;;;;;;5022076;28;20052;-76
2023/02/17 04:06:53;;;;;;;98.88;54.10;;;4.50;99.90;;;;;;5019800;28;20128;-75
2023/02/17 04:09:18;;;;;;;103.85;53.05;;;4.40;99.90;;;;;;5021651;28;20029;-75
2023/02/17 04:11:44;;;;;;;102.68;52.17;;;4.40;99.90;;;;;;5023013;28;20524;-74
2023/02/17 04:14:09;;;;;;;105.80;54.28;;;4.50;99.90;;;;;;5014906;28;20494;-75
2023/02/17 04:16:38;;;;;;;95.95;53.20;;;4.30;99.90;;;;;;5020677;28;20380;-75
2023/02/17 04:19:06;;;;;;;107.90;55.72;;;4.30;99.90;;;;;;5019349;28;20518;-75
2023/02/17 04:21:33;;;;;;;100.78;52.25;;;4.10;99.90;;;;;;5018264;28;20103;-75
2023/02/17 04:24:02;;;;;;;107.85;53.75;;;4.20;99.90;;;;;;5020326;28;20041;-75
2023/02/17 04:26:29;;;;;;;100.10;52.40;;;4.20;99.90;;;;;;5021963;28;20033;-75
2023/02/17 04:28:55;;;;;;;109.53;54.88;;;4.20;99.90;;;;;;5021840;28;20044;-75
2023/02/17 04:31:20;;;;;;;100.75;54.80;;;4.10;99.90;;;;;;5023336;28;20032;-75
2023/02/17 04:33:46;;;;;;;112.60;55.30;;;4.10;99.90;;;;;;5021433;28;20033;-75
2023/02/17 04:36:12;;;;;;;105.40;56.65;;;4.30;99.90;;;;;;5026577;28;20068;-76
2023/02/17 04:38:38;;;;;;;104.20;53.95;;;4.20;99.90;;;;;;5022363;28;20046;-76
2023/02/17 04:41:05;;;;;;;104.65;57.10;;;4.10;99.90;;;;;;5027616;28;20190;-75
2023/02/17 04:43:30;;;;;;;101.55;53.30;;;4.10;99.90;;;;;;5022336;28;20083;-74
2023/02/17 04:45:57;;;;;;;120.25;57.95;;;4.20;99.90;;;;;;5026510;28;20025;-74
2023/02/17 04:48:23;;;;;;;110.30;56.58;;;4.30;99.90;;;;;;5021874;28;20037;-76
2023/02/17 04:50:49;;;;;;;109.43;58.28;;;4.30;99.90;;;;;;5021477;28;20053;-75
2023/02/17 04:53:14;;;;;;;108.63;54.15;;;4.10;99.90;;;;;;5022974;28;20053;-76
2023/02/17 04:55:41;;;;;;;120.85;59.67;;;4.00;99.90;;;;;;5025271;28;20025;-76
2023/02/17 04:58:07;;;;;;;114.10;59.30;;;4.00;99.90;;;;;;5018711;28;20029;-76
2023/02/17 05:00:33;;;;;;;115.43;60.70;;;4.20;99.90;;;;;;5023607;28;20099;-76
2023/02/17 05:02:58;;;;;;;116.68;59.75;;;4.40;99.90;;;;;;5022952;28;20091;-76
2023/02/17 05:05:24;;;;;;;116.95;58.40;;;4.30;99.90;;;;;;5023848;28;20884;-76
2023/02/17 05:07:50;;;;;;;112.10;59.28;;;4.10;99.90;;;;;;5024433;28;20026;-77
2023/02/17 05:10:16;;;;;;;107.82;59.50;;;4.10;99.90;;;;;;5025506;28;20499;-76
2023/02/17 05:12:42;;;;;;;119.70;60.45;;;4.10;99.90;;;;;;5024292;28;20562;-76
2023/02/17 05:15:09;;;;;;;121.25;60.78;;;4.00;99.90;;;;;;5025935;28;20096;-77
2023/02/17 05:17:35;;;;;;;109.55;56.25;;;4.00;99.90;;;;;;5024126;28;20086;-76
2023/02/17 05:20:02;;;;;;;114.38;58.85;;;4.00;99.90;;;;;;5022299;28;20563;-76
2023/02/17 05:22:27;;;;;;;118.47;59.22;;;3.90;99.90;;;;;;5023856;28;20048;-77
2023/02/17 05:24:53;;;;;;;114.13;58.15;;;3.90;99.90;;;;;;5024682;28;20049;-77
2023/02/17 05:27:19;;;;;;;112.13;61.28;;;3.90;99.90;;;;;;5023738;28;20033;-76
2023/02/17 05:29:45;;;;;;;116.72;59.13;;;3.90;99.90;;;;;;5019792;28;20029;-76
2023/02/17 05:32:10;;;;;;;107.45;59.35;;;4.10;99.90;;;;;;5024776;28;20048;-76
2023/02/17 05:34:36;;;;;;;125.82;61.28;;;4.20;99.90;;;;;;5023406;28;20033;-76
2023/02/17 05:37:02;;;;;;;110.70;56.72;;;4.10;99.90;;;;;;5022107;28;20022;-76
2023/02/17 05:39:28;;;;;;;109.38;56.58;;;4.20;99.90;;;;;;5021347;28;20124;-76
2023/02/17 05:41:53;;;;;;;113.57;59.58;;;4.30;99.90;;;;;;5025939;28;20083;-76
2023/02/17 05:44:19;;;;;;;110.40;58.15;;;4.30;99.90;;;;;;5021522;28;20080;-77
2023/02/17 05:46:45;;;;;;;116.30;64.13;;;4.20;99.90;;;;;;5016627;28;20483;-77
2023/02/17 05:49:10;;;;;;;109.82;58.20;;;4.30;99.90;;;;;;5025349;28;20036;-76
2023/02/17 05:51:36;;;;;;;107.07;54.72;;;4.30;99.90;;;;;;5020665;28;20123;-77
2023/02/17 05:54:02;;;;;;;111.50;55.88;;;4.30;99.90;;;;;;5022540;28;20032;-76
2023/02/17 05:56:27;;;;;;;103.30;54.97;;;4.40;99.90;;;;;;5021051;28;20112;-76
2023/02/17 05:58:53;;;;;;;115.43;60.25;;;4.30;99.90;;;;;;5021491;28;20029;-76
2023/02/17 06:01:19;;;;;;;110.82;57.42;;;4.40;99.90;;;;;;5018739;28;20041;-76
2023/02/17 06:03:44;;;;;;;110.97;57.05;;;4.50;99.90;;;;;;5015341;28;20022;-76
2023/02/17 06:06:10;;;;;;;113.10;59.95;;;4.40;99.90;;;;;;5022171;28;20033;-76
2023/02/17 06:08:36;;;;;;;103.07;57.50;;;4.30;99.90;;;;;;5016759;28;20043;-76
2023/02/17 06:11:02;;;;;;;105.30;56.35;;;4.20;99.90;;;;;;5017325;28;20053;-76
2023/02/17 06:13:28;;;;;;;102.30;52.88;;;4.10;99.90;;;;;;5023201;28;20886;-77
2023/02/17 06:15:54;;;;;;;105.82;54.63;;;4.10;99.90;;;;;;5023609;28;20040;-76
2023/02/17 06:18:19;;;;;;;104.68;54.95;;;4.20;99.90;;;;;;5020729;28;20428;-76
2023/02/17 06:20:45;;;;;;;101.28;55.25;;;4.10;99.90;;;;;;5020803;28;20030;-76
2023/02/17 06:23:10;;;;;;;105.20;53.17;;;4.10;99.90;;;;;;5018287;28;20025;-77
2023/02/17 06:25:36;;;;;;;100.63;52.92;;;4.10;99.90;;;;;;5020003;28;20068;-76
2023/02/17 06:28:03;;;;;;;94.30;51.92;;;4.00;99.90;;;;;;5022538;28;20037;-76
2023/02/17 06:30:29;;;;;;;90.63;48.47;;;3.90;99.90;;;;;;5014906;28;20087;-78
2023/02/17 06:32:54;;;;;;;99.95;49.78;;;3.80;99.90;;;;;;5018569;28;20030;-77
2023/02/17 06:35:20;;;;;;;96.07;48.55;;;4.00;99.90;;;;;;5021653;28;20033;-77
2023/02/17 06:37:46;;;;;;;99.45;51.65;;;3.90;99.90;;;;;;5020777;28;20025;-77
2023/02/17 06:40:12;;;;;;;94.30;51.95;;;3.80;99.90;;;;;;5021404;28;20486;-77
2023/02/17 06:42:37;;;;;;;99.65;51.95;;;4.00;99.90;;;;;;5020731;28;20121;-77
2023/02/17 06:45:05;;;;;;;86.38;45.55;;;4.10;99.90;;;;;;5023320;28;20053;-76
2023/02/17 06:47:31;;;;;;;93.15;48.70;;;4.10;99.90;;;;;;5028046;28;20025;-75
2023/02/17 06:49:57;;;;;;;96.45;49.22;;;4.20;99.90;;;;;;5023074;28;20521;-76
2023/02/17 06:52:23;;;;;;;95.30;49.42;;;4.20;99.90;;;;;;5017703;28;22380;-76
2023/02/17 06:54:48;;;;;;;93.88;48.50;;;4.20;99.90;;;;;;5019558;28;20030;-76
2023/02/17 06:57:15;;;;;;;90.15;50.55;;;4.20;99.90;;;;;;5021027;28;20072;-76
2023/02/17 06:59:41;;;;;;;101.60;51.45;;;4.20;99.90;;;;;;5013325;28;20025;-76
2023/02/17 07:02:10;;;;;;;91.57;50.28;;;4.20;99.90;;;;;;5017403;28;20624;-76
2023/02/17 07:04:36;;;;;;;90.45;49.97;;;4.30;99.90;;;;;;5016465;28;20140;-75
2023/02/17 07:07:02;;;;;;;97.50;50.03;;;4.40;99.90;;;;;;5021279;28;20112;-75
2023/02/17 07:09:27;;;;;;;93.78;48.63;;;4.30;99.90;;;;;;5020735;28;20642;-76
2023/02/17 07:11:53;;;;;;;94.72;48.35;;;4.40;99.90;;;;;;5019239;28;20032;-74
2023/02/17 07:14:19;;;;;;;88.70;49.20;;;4.40;99.90;;;;;;5019554;28;20033;-74
2023/02/17 07:16:44;;;;;;;92.45;47.72;;;4.40;99.90;;;;;;5018537;28;20037;-74
2023/02/17 07:19:10;;;;;;;97.45;48.38;;;4.50;99.90;;;;;;5019986;28;20033;-74
2023/02/17 07:21:35;;;;;;;102.00;51.13;;;4.40;99.90;;;;;;5017368;28;20035;-73
2023/02/17 07:24:01;;;;;;;91.68;48.67;;;4.50;99.90;;;;;;5018590;28;20048;-74
2023/02/17 07:26:27;;;;;;;96.60;51.10;;;4.60;99.90;;;;;;5019223;28;20029;-74
2023/02/17 07:28:52;;;;;;;86.75;48.08;;;4.40;99.90;;;;;;5016431;28;20096;-74
2023/02/17 07:31:18;;;;;;;102.65;48.67;;;4.40;99.90;;;;;;5019617;28;20499;-74
2023/02/17 07:33:46;;;;;;;87.20;47.17;;;4.50;99.90;;;;;;5017983;28;20032;-73
2023/02/17 07:36:15;;;;;;;95.13;51.88;;;4.70;99.90;;;;;;5020292;28;20025;-75
2023/02/17 07:38:41;;;;;;;88.93;47.28;;;4.80;99.90;;;;;;5014142;28;20064;-74
2023/02/17 07:41:09;;;;;;;89.15;49.85;;;5.00;99.90;;;;;;5019234;28;20087;-74
2023/02/17 07:43:35;;;;;;;95.75;50.38;;;5.00;99.90;;;;;;5021555;28;20388;-78
2023/02/17 07:46:01;;;;;;;97.07;51.10;;;5.20;99.90;;;;;;5020408;28;20037;-75
2023/02/17 07:48:26;;;;;;;102.93;52.97;;;5.20;99.90;;;;;;5010218;28;20025;-75
2023/02/17 07:50:52;;;;;;;88.85;47.65;;;5.20;99.90;;;;;;5016853;28;20037;-74
2023/02/17 07:53:18;;;;;;;93.38;48.95;;;5.20;99.90;;;;;;5015404;28;20029;-75
2023/02/17 07:55:43;;;;;;;87.68;46.92;;;5.10;99.90;;;;;;5014606;28;20037;-75
2023/02/17 07:58:09;;;;;;;92.22;46.40;;;5.10;99.90;;;;;;5015598;28;20068;-74
2023/02/17 08:00:35;;;;;;;82.65;46.25;;;5.20;99.90;;;;;;5012619;28;20116;-74
2023/02/17 08:03:00;;;;;;;89.72;48.20;;;5.20;99.90;;;;;;5019652;28;20083;-74
2023/02/17 08:05:26;;;;;;;86.82;46.83;;;5.20;99.90;;;;;;5022275;28;20128;-74
2023/02/17 08:13:17;;;;;;;89.95;49.72;;;5.30;99.90;;;;;;5021851;28;21238;-75
2023/02/17 08:13:24;;;;;;;92.00;46.47;;;5.60;99.90;;;;;;5021733;28;20102;-74
2023/02/17 08:15:50;;;;;;;82.63;45.35;;;6.10;99.90;;;;;;5024322;28;20116;-77
2023/02/17 08:18:15;;;;;;;87.05;48.00;;;6.00;99.90;;;;;;5024839;28;20117;-76
2023/02/17 08:20:41;;;;;;;71.03;40.30;;;5.90;99.90;;;;;;5022299;28;20706;-72
2023/02/17 08:23:07;;;;;;;82.35;43.85;;;6.10;99.90;;;;;;5023870;28;20040;-75
2023/02/17 08:25:34;;;;;;;79.35;42.80;;;6.40;99.90;;;;;;5022628;28;20045;-75
2023/02/17 08:28:00;;;;;;;77.20;43.13;;;6.20;99.90;;;;;;5022147;28;20036;-75
2023/02/17 08:30:26;;;;;;;85.07;45.40;;;5.90;99.90;;;;;;5023334;28;20026;-74
2023/02/17 08:32:52;;;;;;;96.78;49.42;;;5.60;99.90;;;;;;5024479;28;20025;-74
2023/02/17 08:35:21;;;;;;;95.00;47.75;;;5.50;99.90;;;;;;5021671;28;20087;-75
2023/02/17 08:37:50;;;;;;;85.32;46.45;;;5.50;99.90;;;;;;5022022;28;20044;-75
2023/02/17 08:40:17;;;;;;;79.82;44.65;;;5.40;99.90;;;;;;5023698;28;20037;-75
2023/02/17 08:42:43;;;;;;;83.47;45.78;;;5.40;99.90;;;;;;5022679;28;20356;-75
2023/02/17 08:45:11;;;;;;;75.45;42.67;;;5.50;99.90;;;;;;5023027;28;20577;-74
2023/02/17 08:47:37;;;;;;;83.32;44.00;;;5.50;99.90;;;;;;5025807;28;20065;-75
2023/02/17 08:50:05;;;;;;;81.53;44.67;;;5.20;99.90;;;;;;5023581;28;20061;-75
2023/02/17 08:52:30;;;;;;;92.85;44.95;;;5.30;99.90;;;;;;5024647;28;20091;-75
2023/02/17 08:54:56;;;;;;;84.28;45.78;;;5.40;99.90;;;;;;5022466;28;20033;-75
2023/02/17 08:57:22;;;;;;;75.97;45.80;;;5.50;99.90;;;;;;5022559;28;20029;-74
2023/02/17 08:59:48;;;;;;;80.53;42.90;;;5.60;99.90;;;;;;5023924;28;20525;-75
2023/02/17 09:02:15;;;;;;;82.95;40.80;;;5.70;99.90;;;;;;5022381;28;20029;-75
2023/02/17 09:04:42;;;;;;;84.60;43.10;;;5.90;99.90;;;;;;5022161;28;20073;-75
2023/02/17 09:07:10;;;;;;;87.03;43.35;;;5.90;99.90;;;;;;5020935;28;20597;-75
2023/02/17 09:09:36;;;;;;;82.63;44.33;;;5.90;99.90;;;;;;5023856;28;20098;-75
2023/02/17 09:12:01;;;;;;;77.75;43.35;;;5.90;99.90;;;;;;5021090;28;20551;-74
2023/02/17 09:14:27;;;;;;;87.45;44.83;;;6.00;99.90;;;;;;5022030;28;20029;-75
2023/02/17 09:16:54;;;;;;;82.63;43.30;;;6.00;99.90;;;;;;5018016;28;20022;-75
2023/02/17 09:19:20;;;;;;;74.70;43.38;;;5.90;99.90;;;;;;5014502;28;20057;-75
2023/02/17 09:21:47;;;;;;;88.03;46.28;;;5.90;99.90;;;;;;5019973;28;20576;-75
2023/02/17 09:24:13;;;;;;;80.57;44.08;;;5.90;99.90;;;;;;5022469;28;20083;-74
2023/02/17 09:26:38;;;;;;;82.05;42.72;;;6.00;99.90;;;;;;5024172;28;20029;-74
2023/02/17 09:29:05;;;;;;;85.65;46.40;;;6.10;99.90;;;;;;5022349;28;20042;-75
2023/02/17 09:31:32;;;;;;;80.75;43.60;;;6.20;99.90;;;;;;5020174;28;20830;-74
2023/02/17 09:33:58;;;;;;;84.50;42.67;;;6.30;99.90;;;;;;5023578;28;20079;-75
2023/02/17 09:36:30;;;;;;;80.93;43.15;;;6.40;99.90;;;;;;5022804;28;20255;-75
2023/02/17 09:38:57;;;;;;;76.80;42.88;;;6.50;99.90;;;;;;5023509;28;20045;-76
2023/02/17 09:41:22;;;;;;;72.03;42.15;;;6.60;99.90;;;;;;5015476;28;20056;-75
2023/02/17 09:43:50;;;;;;;78.20;41.80;;;6.40;99.90;;;;;;5021278;28;20499;-75
2023/02/17 09:46:34;;;;;;;71.85;41.72;;;6.30;99.90;;;;;;5021460;28;20063;-75
2023/02/17 09:49:23;;;;;;;69.60;42.70;;;6.40;99.90;;;;;;5019831;28;20045;-76
2023/02/17 09:52:41;;;;;;;75.97;42.40;;;6.50;99.90;;;;;;5019639;28;20065;-75
2023/02/17 09:55:21;;;;;;;80.78;42.22;;;6.60;99.90;;;;;;5022633;28;20040;-76
2023/02/17 09:57:56;;;;;;;81.07;42.55;;;6.70;99.90;;;;;;5021650;28;20087;-76
2023/02/17 10:00:38;;;;;;;74.75;41.13;;;6.80;99.90;;;;;;5022213;28;20036;-75
2023/02/17 10:03:18;;;;;;;83.68;43.83;;;6.90;99.90;;;;;;5022089;28;20029;-75
2023/02/17 10:06:16;;;;;;;73.38;41.35;;;7.10;99.90;;;;;;5019796;28;20464;-76
2023/02/17 10:08:50;;;;;;;73.80;41.42;;;7.20;99.90;;;;;;5021268;28;20045;-76
2023/02/17 10:11:27;;;;;;;76.82;43.65;;;7.10;99.90;;;;;;5021627;28;20026;-76
2023/02/17 10:13:56;;;;;;;80.50;42.38;;;7.30;99.90;;;;;;5021592;28;20107;-75
2023/02/17 10:16:29;;;;;;;79.18;44.08;;;7.40;99.90;;;;;;5021419;28;20934;-75
2023/02/17 10:19:07;;;;;;;79.10;44.90;;;7.60;99.90;;;;;;5022424;28;20022;-75
2023/02/17 10:21:44;;;;;;;77.60;42.85;;;7.70;99.90;;;;;;5022659;28;20037;-75
2023/02/17 10:24:10;;;;;;;75.88;40.95;;;7.70;99.90;;;;;;5020848;28;20033;-75
2023/02/17 10:27:13;;;;;;;73.13;43.67;;;7.70;99.90;;;;;;5020562;28;20522;-75
2023/02/17 10:30:09;;;;;;;85.72;45.60;;;7.90;99.60;;;;;;5020928;28;20524;-76
2023/02/17 10:32:55;;;;;;;81.47;46.50;;;8.20;99.30;;;;;;5022430;28;20029;-75
2023/02/17 10:35:51;;;;;;;81.93;45.10;;;8.40;98.80;;;;;;5022003;28;20187;-75
2023/02/17 10:38:27;;;;;;;80.18;44.70;;;8.50;98.30;;;;;;5018930;28;20515;-75
2023/02/17 10:40:54;;;;;;;80.00;46.10;;;8.60;98.70;;;;;;5020497;28;20033;-76
2023/02/17 10:43:24;;;;;;;82.85;45.00;;;8.70;98.20;;;;;;5020658;28;20095;-75
2023/02/17 10:45:50;;;;;;;76.72;44.67;;;8.70;98.30;;;;;;5018808;28;20486;-75
2023/02/17 10:48:19;;;;;;;78.43;45.20;;;8.90;98.10;;;;;;5021917;28;20052;-75
2023/02/17 10:50:46;;;;;;;83.32;46.53;;;8.90;97.60;;;;;;5018632;28;20055;-75
2023/02/17 10:53:16;;;;;;;74.60;43.83;;;8.90;97.40;;;;;;5020648;28;20151;-75
2023/02/17 10:56:01;;;;;;;76.95;42.55;;;9.00;97.30;;;;;;5020901;28;20033;-76
2023/02/17 10:58:44;;;;;;;82.63;42.42;;;8.80;97.30;;;;;;5019866;28;20082;-76
2023/02/17 11:01:11;;;;;;;75.35;41.80;;;9.20;98.20;;;;;;5020193;28;20021;-76
2023/02/17 11:03:39;;;;;;;87.80;48.20;;;9.20;97.50;;;;;;5019410;28;20029;-76
2023/02/17 11:06:16;;;;;;;75.75;45.22;;;9.00;97.30;;;;;;5020458;28;20072;-76
2023/02/17 11:08:56;;;;;;;88.15;48.17;;;9.10;97.60;;;;;;5019868;28;20041;-76
2023/02/17 11:11:29;;;;;;;81.90;44.20;;;9.20;97.30;;;;;;5019203;28;20040;-76
2023/02/17 11:14:07;;;;;;;75.75;42.83;;;9.30;97.10;;;;;;5015334;28;20486;-75
2023/02/17 11:16:43;;;;;;;79.20;45.30;;;9.50;96.70;;;;;;5019462;28;20041;-76
2023/02/17 11:19:26;;;;;;;84.93;47.45;;;9.50;96.50;;;;;;5020075;28;20037;-75
2023/02/17 11:21:54;;;;;;;82.72;45.95;;;9.70;96.20;;;;;;5019850;28;20029;-76
2023/02/17 11:24:19;;;;;;;83.55;46.47;;;9.70;96.30;;;;;;5017674;28;20040;-76
2023/02/17 11:26:56;;;;;;;74.75;44.22;;;10.00;96.60;;;;;;5020781;28;20029;-76
2023/02/17 11:29:22;;;;;;;75.30;42.80;;;10.10;95.50;;;;;;5019199;28;20056;-75
2023/02/17 11:32:06;;;;;;;72.63;42.45;;;9.90;95.50;;;;;;5018794;28;20041;-75
2023/02/17 11:34:34;;;;;;;74.35;40.65;;;9.80;95.90;;;;;;5017783;28;20030;-75
2023/02/17 11:37:12;;;;;;;72.47;40.47;;;9.90;95.80;;;;;;5019761;28;20052;-76
2023/02/17 11:39:48;;;;;;;73.90;40.05;;;10.00;95.30;;;;;;5018835;28;20053;-75
2023/02/17 11:42:20;;;;;;;72.05;40.33;;;10.10;95.30;;;;;;5021691;28;20703;-76
2023/02/17 11:44:46;;;;;;;68.65;37.63;;;10.10;94.60;;;;;;5019288;28;20033;-75
2023/02/17 11:47:34;;;;;;;63.10;35.40;;;10.10;94.30;;;;;;5019466;28;20032;-79
2023/02/17 11:50:28;;;;;;;69.70;37.63;;;10.10;93.80;;;;;;5018824;28;20087;-77
2023/02/17 11:53:16;;;;;;;65.00;35.63;;;10.30;94.00;;;;;;5022266;28;20059;-79
2023/02/17 11:55:48;;;;;;;57.13;34.13;;;10.30;93.40;;;;;;5020855;28;20026;-76
2023/02/17 11:58:34;;;;;;;62.42;34.17;;;10.50;93.80;;;;;;5021361;28;20037;-78
2023/02/17 12:01:18;;;;;;;63.08;35.38;;;10.80;93.90;;;;;;5022462;28;20064;-78
2023/02/17 12:04:12;;;;;;;62.72;36.78;;;10.80;93.70;;;;;;5023078;28;20064;-78
2023/02/17 12:06:52;;;;;;;69.47;38.72;;;10.90;93.10;;;;;;5020804;28;20030;-77
2023/02/17 12:09:29;;;;;;;61.10;33.63;;;11.00;92.80;;;;;;5021689;28;20545;-80
2023/02/17 12:12:12;;;;;;;59.38;35.67;;;11.10;92.80;;;;;;5021208;28;20144;-78
2023/02/17 12:14:54;;;;;;;60.80;32.60;;;11.30;92.20;;;;;;5021195;28;20030;-76
2023/02/17 12:17:49;;;;;;;50.83;30.20;;;11.40;92.40;;;;;;5021996;28;20037;-79
2023/02/17 12:20:49;;;;;;;50.80;27.15;;;11.70;91.80;;;;;;5017435;28;20045;-77
2023/02/17 12:23:30;;;;;;;53.05;30.42;;;11.60;91.70;;;;;;5010247;28;20046;-78
2023/02/17 12:26:02;;;;;;;59.97;32.92;;;11.30;91.50;;;;;;5013389;28;20046;-78
2023/02/17 12:28:57;;;;;;;67.07;34.20;;;11.30;91.60;;;;;;5023456;28;20480;-78
2023/02/17 12:31:42;;;;;;;72.60;38.05;;;11.30;92.00;;;;;;5036778;28;20040;-79
2023/02/17 12:34:24;;;;;;;64.85;36.63;;;11.20;92.20;;;;;;5092343;23;20507;-82
2023/02/17 12:36:52;;;;;;;58.00;34.58;;;11.50;92.40;;;;;;4961818;28;20034;-81
2023/02/17 12:39:23;;;;;;;63.25;37.72;;;11.50;92.40;;;;;;4960228;28;20057;-81
2023/02/17 12:42:01;;;;;;;61.08;34.50;;;11.40;92.10;;;;;;4961077;28;20031;-81
2023/02/17 12:44:31;;;;;;;62.65;36.97;;;11.50;93.20;;;;;;4961653;28;20095;-82
2023/02/17 12:47:24;;;;;;;66.85;39.28;;;11.40;91.80;;;;;;4964090;28;20041;-80
2023/02/17 12:49:59;;;;;;;69.05;41.05;;;11.30;92.30;;;;;;4959599;28;20165;-85